sensor_id;sensor_type;location;lat;lon;timestamp;temperature;humidity
3208;DHT22;1616;52.394;9.756;2023-04-01T00:00:48;10.50;1.40
3208;DHT22;1616;52.394;9.756;2023-04-01T00:03:14;10.50;1.40
3208;DHT22;1616;52.394;9.756;2023-04-01T00:05:39;10.50;1.30
3208;DHT22;1616;52.394;9.756;2023-04-01T00:08:05;10.50;1.20
3208;DHT22;1616;52.394;9.756;2023-04-01T00:10:31;10.50;1.00
3208;DHT22;1616;52.394;9.756;2023-04-01T00:12:58;10.50;1.00
3208;DHT22;1616;52.394;9.756;2023-04-01T00:15:24;10.50;1.00
3208;DHT22;1616;52.394;9.756;2023-04-01T00:17:49;10.50;1.00
3208;DHT22;1616;52.394;9.756;2023-04-01T00:20:16;10.50;1.00
3208;DHT22;1616;52.394;9.756;2023-04-01T00:22:42;10.50;1.00
3208;DHT22;1616;52.394;9.756;2023-04-01T00:25:09;10.50;1.00
3208;DHT22;1616;52.394;9.756;2023-04-01T00:27:35;10.50;1.00
3208;DHT22;1616;52.394;9.756;2023-04-01T00:30:00;10.50;1.10
3208;DHT22;1616;52.394;9.756;2023-04-01T00:32:26;10.50;1.10
3208;DHT22;1616;52.394;9.756;2023-04-01T00:34:53;10.50;1.10
3208;DHT22;1616;52.394;9.756;2023-04-01T00:37:19;10.50;1.10
3208;DHT22;1616;52.394;9.756;2023-04-01T00:39:46;10.50;1.20
3208;DHT22;1616;52.394;9.756;2023-04-01T00:42:12;10.50;1.10
3208;DHT22;1616;52.394;9.756;2023-04-01T00:44:39;10.40;1.50
3208;DHT22;1616;52.394;9.756;2023-04-01T00:47:05;10.40;1.10
3208;DHT22;1616;52.394;9.756;2023-04-01T00:49:37;10.40;1.20
3208;DHT22;1616;52.394;9.756;2023-04-01T00:52:05;10.40;1.10
3208;DHT22;1616;52.394;9.756;2023-04-01T00:54:32;10.40;1.30
3208;DHT22;1616;52.394;9.756;2023-04-01T00:57:10;10.40;1.30
3208;DHT22;1616;52.394;9.756;2023-04-01T00:59:43;10.40;1.30
3208;DHT22;1616;52.394;9.756;2023-04-01T01:02:11;10.30;1.20
3208;DHT22;1616;52.394;9.756;2023-04-01T01:04:37;10.30;1.30
3208;DHT22;1616;52.394;9.756;2023-04-01T01:07:27;10.40;1.50
3208;DHT22;1616;52.394;9.756;2023-04-01T01:10:09;10.30;1.50
3208;DHT22;1616;52.394;9.756;2023-04-01T01:15:31;10.30;1.50
3208;DHT22;1616;52.394;9.756;2023-04-01T01:18:19;10.30;1.70
3208;DHT22;1616;52.394;9.756;2023-04-01T01:23:29;10.20;1.60
3208;DHT22;1616;52.394;9.756;2023-04-01T01:31:37;10.20;1.50
3208;DHT22;1616;52.394;9.756;2023-04-01T01:36:53;10.10;1.60
3208;DHT22;1616;52.394;9.756;2023-04-01T01:39:21;10.10;1.80
3208;DHT22;1616;52.394;9.756;2023-04-01T01:41:52;10.10;1.80
3208;DHT22;1616;52.394;9.756;2023-04-01T01:44:19;10.10;2.00
3208;DHT22;1616;52.394;9.756;2023-04-01T01:46:47;10.10;1.80
3208;DHT22;1616;52.394;9.756;2023-04-01T01:49:14;10.10;1.90
3208;DHT22;1616;52.394;9.756;2023-04-01T01:51:41;10.10;1.90
3208;DHT22;1616;52.394;9.756;2023-04-01T01:54:15;10.10;2.20
3208;DHT22;1616;52.394;9.756;2023-04-01T01:56:44;10.10;2.00
3208;DHT22;1616;52.394;9.756;2023-04-01T01:59:11;10.10;1.90
3208;DHT22;1616;52.394;9.756;2023-04-01T02:01:42;10.10;2.00
3208;DHT22;1616;52.394;9.756;2023-04-01T02:04:10;10.10;1.90
3208;DHT22;1616;52.394;9.756;2023-04-01T02:06:38;10.10;1.90
3208;DHT22;1616;52.394;9.756;2023-04-01T02:09:10;10.10;1.80
3208;DHT22;1616;52.394;9.756;2023-04-01T02:11:47;10.10;1.90
3208;DHT22;1616;52.394;9.756;2023-04-01T02:14:22;10.10;1.90
3208;DHT22;1616;52.394;9.756;2023-04-01T02:19:23;10.10;1.80
3208;DHT22;1616;52.394;9.756;2023-04-01T02:21:56;10.10;1.80
3208;DHT22;1616;52.394;9.756;2023-04-01T02:24:25;10.00;1.60
3208;DHT22;1616;52.394;9.756;2023-04-01T02:26:52;10.10;1.50
3208;DHT22;1616;52.394;9.756;2023-04-01T02:29:24;10.00;1.60
3208;DHT22;1616;52.394;9.756;2023-04-01T02:31:53;10.10;1.60
3208;DHT22;1616;52.394;9.756;2023-04-01T02:34:21;10.00;1.50
3208;DHT22;1616;52.394;9.756;2023-04-01T02:36:49;10.10;1.50
3208;DHT22;1616;52.394;9.756;2023-04-01T02:39:15;10.10;1.50
3208;DHT22;1616;52.394;9.756;2023-04-01T02:41:43;10.10;1.60
3208;DHT22;1616;52.394;9.756;2023-04-01T02:44:10;9.90;2.30
3208;DHT22;1616;52.394;9.756;2023-04-01T02:46:36;10.00;1.60
3208;DHT22;1616;52.394;9.756;2023-04-01T02:49:02;10.00;1.60
3208;DHT22;1616;52.394;9.756;2023-04-01T02:51:29;10.10;1.50
3208;DHT22;1616;52.394;9.756;2023-04-01T02:53:55;10.10;1.50
3208;DHT22;1616;52.394;9.756;2023-04-01T02:56:21;10.10;1.40
3208;DHT22;1616;52.394;9.756;2023-04-01T02:58:47;10.00;1.40
3208;DHT22;1616;52.394;9.756;2023-04-01T03:01:13;10.10;1.50
3208;DHT22;1616;52.394;9.756;2023-04-01T03:03:38;10.10;1.50
3208;DHT22;1616;52.394;9.756;2023-04-01T03:06:06;10.10;1.40
3208;DHT22;1616;52.394;9.756;2023-04-01T03:08:32;10.10;1.30
3208;DHT22;1616;52.394;9.756;2023-04-01T03:10:57;10.10;1.20
3208;DHT22;1616;52.394;9.756;2023-04-01T03:13:23;10.10;1.20
3208;DHT22;1616;52.394;9.756;2023-04-01T03:15:48;10.00;1.30
3208;DHT22;1616;52.394;9.756;2023-04-01T03:18:14;10.00;1.40
3208;DHT22;1616;52.394;9.756;2023-04-01T03:20:41;10.00;1.40
3208;DHT22;1616;52.394;9.756;2023-04-01T03:23:07;10.00;1.60
3208;DHT22;1616;52.394;9.756;2023-04-01T03:25:33;10.00;1.50
3208;DHT22;1616;52.394;9.756;2023-04-01T03:27:59;10.00;1.50
3208;DHT22;1616;52.394;9.756;2023-04-01T03:30:26;10.00;1.60
3208;DHT22;1616;52.394;9.756;2023-04-01T03:32:52;10.00;1.40
3208;DHT22;1616;52.394;9.756;2023-04-01T03:35:18;10.00;1.50
3208;DHT22;1616;52.394;9.756;2023-04-01T03:37:44;10.00;1.50
3208;DHT22;1616;52.394;9.756;2023-04-01T03:40:10;10.00;1.50
3208;DHT22;1616;52.394;9.756;2023-04-01T03:42:36;9.90;2.30
3208;DHT22;1616;52.394;9.756;2023-04-01T03:45:03;10.00;1.70
3208;DHT22;1616;52.394;9.756;2023-04-01T03:47:30;9.90;2.40
3208;DHT22;1616;52.394;9.756;2023-04-01T03:49:56;9.90;2.40
3208;DHT22;1616;52.394;9.756;2023-04-01T03:52:22;9.90;2.30
3208;DHT22;1616;52.394;9.756;2023-04-01T03:54:47;9.90;2.50
3208;DHT22;1616;52.394;9.756;2023-04-01T03:57:13;9.90;2.60
3208;DHT22;1616;52.394;9.756;2023-04-01T03:59:39;9.90;3.10
3208;DHT22;1616;52.394;9.756;2023-04-01T04:02:05;9.90;2.50
3208;DHT22;1616;52.394;9.756;2023-04-01T04:04:31;9.90;2.40
3208;DHT22;1616;52.394;9.756;2023-04-01T04:06:57;9.90;2.40
3208;DHT22;1616;52.394;9.756;2023-04-01T04:09:23;9.90;2.60
3208;DHT22;1616;52.394;9.756;2023-04-01T04:11:49;9.90;2.70
3208;DHT22;1616;52.394;9.756;2023-04-01T04:14:15;9.90;2.60
3208;DHT22;1616;52.394;9.756;2023-04-01T04:16:40;9.90;2.60
3208;DHT22;1616;52.394;9.756;2023-04-01T04:19:06;9.90;2.50
3208;DHT22;1616;52.394;9.756;2023-04-01T04:21:32;9.90;2.50
3208;DHT22;1616;52.394;9.756;2023-04-01T04:24:01;9.90;2.50
3208;DHT22;1616;52.394;9.756;2023-04-01T04:26:27;9.80;2.50
3208;DHT22;1616;52.394;9.756;2023-04-01T04:28:54;9.80;2.60
3208;DHT22;1616;52.394;9.756;2023-04-01T04:31:21;9.80;2.60
3208;DHT22;1616;52.394;9.756;2023-04-01T04:33:48;9.80;2.60
3208;DHT22;1616;52.394;9.756;2023-04-01T04:36:14;9.80;2.80
3208;DHT22;1616;52.394;9.756;2023-04-01T04:38:40;9.80;2.80
3208;DHT22;1616;52.394;9.756;2023-04-01T04:41:16;9.80;2.80
3208;DHT22;1616;52.394;9.756;2023-04-01T04:43:49;9.80;2.80
3208;DHT22;1616;52.394;9.756;2023-04-01T04:46:15;9.80;2.80
3208;DHT22;1616;52.394;9.756;2023-04-01T04:48:41;9.80;2.80
3208;DHT22;1616;52.394;9.756;2023-04-01T04:51:13;9.80;3.00
3208;DHT22;1616;52.394;9.756;2023-04-01T04:53:39;9.80;3.10
3208;DHT22;1616;52.394;9.756;2023-04-01T04:56:04;9.80;3.00
3208;DHT22;1616;52.394;9.756;2023-04-01T04:58:30;9.80;3.10
3208;DHT22;1616;52.394;9.756;2023-04-01T05:00:56;9.80;3.20
3208;DHT22;1616;52.394;9.756;2023-04-01T05:03:21;9.80;3.30
3208;DHT22;1616;52.394;9.756;2023-04-01T05:05:53;9.80;3.20
3208;DHT22;1616;52.394;9.756;2023-04-01T05:08:19;9.80;3.10
3208;DHT22;1616;52.394;9.756;2023-04-01T05:10:45;9.80;3.10
3208;DHT22;1616;52.394;9.756;2023-04-01T05:13:11;9.80;3.10
3208;DHT22;1616;52.394;9.756;2023-04-01T05:15:36;9.80;3.10
3208;DHT22;1616;52.394;9.756;2023-04-01T05:18:03;9.80;3.10
3208;DHT22;1616;52.394;9.756;2023-04-01T05:20:29;9.80;3.00
3208;DHT22;1616;52.394;9.756;2023-04-01T05:22:59;9.80;3.10
3208;DHT22;1616;52.394;9.756;2023-04-01T05:25:25;9.80;3.30
3208;DHT22;1616;52.394;9.756;2023-04-01T05:27:51;9.80;3.30
3208;DHT22;1616;52.394;9.756;2023-04-01T05:30:18;9.80;3.80
3208;DHT22;1616;52.394;9.756;2023-04-01T05:32:43;9.80;3.70
3208;DHT22;1616;52.394;9.756;2023-04-01T05:35:10;9.80;3.90
3208;DHT22;1616;52.394;9.756;2023-04-01T05:37:36;9.80;3.90
3208;DHT22;1616;52.394;9.756;2023-04-01T05:40:02;9.90;4.20
3208;DHT22;1616;52.394;9.756;2023-04-01T05:42:28;9.80;4.40
3208;DHT22;1616;52.394;9.756;2023-04-01T05:44:53;9.90;4.50
3208;DHT22;1616;52.394;9.756;2023-04-01T05:47:21;9.90;4.50
3208;DHT22;1616;52.394;9.756;2023-04-01T05:49:47;9.90;4.50
3208;DHT22;1616;52.394;9.756;2023-04-01T05:52:14;10.00;3.90
3208;DHT22;1616;52.394;9.756;2023-04-01T05:54:40;10.00;3.80
3208;DHT22;1616;52.394;9.756;2023-04-01T05:57:06;10.00;3.90
3208;DHT22;1616;52.394;9.756;2023-04-01T05:59:31;10.10;3.90
3208;DHT22;1616;52.394;9.756;2023-04-01T06:01:57;10.10;4.20
3208;DHT22;1616;52.394;9.756;2023-04-01T06:04:24;10.10;4.30
3208;DHT22;1616;52.394;9.756;2023-04-01T06:06:50;10.20;4.70
3208;DHT22;1616;52.394;9.756;2023-04-01T06:09:26;10.20;4.20
3208;DHT22;1616;52.394;9.756;2023-04-01T06:15:16;10.30;4.00
3208;DHT22;1616;52.394;9.756;2023-04-01T06:24:04;10.40;5.20
3208;DHT22;1616;52.394;9.756;2023-04-01T06:29:32;10.60;6.60
3208;DHT22;1616;52.394;9.756;2023-04-01T06:34:49;10.80;6.10
3208;DHT22;1616;52.394;9.756;2023-04-01T06:37:58;10.90;6.00
3208;DHT22;1616;52.394;9.756;2023-04-01T06:43:21;11.10;5.70
3208;DHT22;1616;52.394;9.756;2023-04-01T06:49:11;11.20;6.40
3208;DHT22;1616;52.394;9.756;2023-04-01T06:54:31;11.30;5.30
3208;DHT22;1616;52.394;9.756;2023-04-01T06:57:07;11.40;5.10
3208;DHT22;1616;52.394;9.756;2023-04-01T06:59:37;11.40;5.30
3208;DHT22;1616;52.394;9.756;2023-04-01T07:02:36;11.50;4.80
3208;DHT22;1616;52.394;9.756;2023-04-01T07:05:04;11.50;3.50
3208;DHT22;1616;52.394;9.756;2023-04-01T07:07:47;11.50;3.10
3208;DHT22;1616;52.394;9.756;2023-04-01T07:10:23;11.50;2.90
3208;DHT22;1616;52.394;9.756;2023-04-01T07:12:53;11.50;3.20
3208;DHT22;1616;52.394;9.756;2023-04-01T07:15:28;11.50;2.80
3208;DHT22;1616;52.394;9.756;2023-04-01T07:18:10;11.50;3.00
3208;DHT22;1616;52.394;9.756;2023-04-01T07:20:38;11.50;2.90
3208;DHT22;1616;52.394;9.756;2023-04-01T07:23:16;11.50;2.20
3208;DHT22;1616;52.394;9.756;2023-04-01T07:25:50;11.50;2.60
3208;DHT22;1616;52.394;9.756;2023-04-01T07:28:16;11.50;2.10
3208;DHT22;1616;52.394;9.756;2023-04-01T07:33:42;11.50;2.10
3208;DHT22;1616;52.394;9.756;2023-04-01T07:36:33;11.40;2.00
3208;DHT22;1616;52.394;9.756;2023-04-01T07:39:25;11.50;1.70
3208;DHT22;1616;52.394;9.756;2023-04-01T07:42:04;11.50;1.60
3208;DHT22;1616;52.394;9.756;2023-04-01T07:44:54;11.50;1.60
3208;DHT22;1616;52.394;9.756;2023-04-01T07:50:22;11.50;1.30
3208;DHT22;1616;52.394;9.756;2023-04-01T07:56:13;11.60;2.30
3208;DHT22;1616;52.394;9.756;2023-04-01T08:04:27;12.00;4.30
3208;DHT22;1616;52.394;9.756;2023-04-01T08:07:02;12.00;4.60
3208;DHT22;1616;52.394;9.756;2023-04-01T08:09:53;12.20;5.30
3208;DHT22;1616;52.394;9.756;2023-04-01T08:15:15;12.70;6.70
3208;DHT22;1616;52.394;9.756;2023-04-01T08:17:53;13.00;7.10
3208;DHT22;1616;52.394;9.756;2023-04-01T08:20:50;13.30;8.20
3208;DHT22;1616;52.394;9.756;2023-04-01T08:23:44;13.70;8.10
3208;DHT22;1616;52.394;9.756;2023-04-01T08:26:30;14.20;6.70
3208;DHT22;1616;52.394;9.756;2023-04-01T08:29:02;14.60;8.40
3208;DHT22;1616;52.394;9.756;2023-04-01T08:31:56;15.30;12.50
3208;DHT22;1616;52.394;9.756;2023-04-01T08:34:28;16.00;10.80
3208;DHT22;1616;52.394;9.756;2023-04-01T08:39:51;17.50;1.00
3208;DHT22;1616;52.394;9.756;2023-04-01T08:42:46;18.00;1.00
3208;DHT22;1616;52.394;9.756;2023-04-01T08:45:30;18.10;1.00
3208;DHT22;1616;52.394;9.756;2023-04-01T08:56:54;17.00;1.00
3208;DHT22;1616;52.394;9.756;2023-04-01T09:10:40;16.40;1.00
3208;DHT22;1616;52.394;9.756;2023-04-01T09:16:35;16.20;1.00
3208;DHT22;1616;52.394;9.756;2023-04-01T09:19:11;16.10;1.00
3208;DHT22;1616;52.394;9.756;2023-04-01T09:22:09;16.10;1.00
3208;DHT22;1616;52.394;9.756;2023-04-01T09:27:56;15.90;1.00
3208;DHT22;1616;52.394;9.756;2023-04-01T09:36:33;15.60;1.00
3208;DHT22;1616;52.394;9.756;2023-04-01T09:39:37;15.60;1.00
3208;DHT22;1616;52.394;9.756;2023-04-01T09:42:28;15.50;1.00
3208;DHT22;1616;52.394;9.756;2023-04-01T09:45:07;15.40;1.00
3208;DHT22;1616;52.394;9.756;2023-04-01T09:50:52;15.20;1.00
3208;DHT22;1616;52.394;9.756;2023-04-01T09:53:41;15.10;1.00
3208;DHT22;1616;52.394;9.756;2023-04-01T10:01:57;15.10;1.00
3208;DHT22;1616;52.394;9.756;2023-04-01T10:05:04;15.00;1.00
3208;DHT22;1616;52.394;9.756;2023-04-01T10:11:11;14.80;1.00
3208;DHT22;1616;52.394;9.756;2023-04-01T10:19:43;14.30;1.00
3208;DHT22;1616;52.394;9.756;2023-04-01T10:22:30;14.20;1.00
3208;DHT22;1616;52.394;9.756;2023-04-01T10:28:29;14.00;1.00
3208;DHT22;1616;52.394;9.756;2023-04-01T10:36:53;13.70;1.00
3208;DHT22;1616;52.394;9.756;2023-04-01T10:39:48;13.60;1.00
3208;DHT22;1616;52.394;9.756;2023-04-01T10:45:20;13.40;1.00
3208;DHT22;1616;52.394;9.756;2023-04-01T10:48:05;13.30;1.00
3208;DHT22;1616;52.394;9.756;2023-04-01T10:50:57;13.10;1.00
3208;DHT22;1616;52.394;9.756;2023-04-01T11:04:36;12.80;1.00
3208;DHT22;1616;52.394;9.756;2023-04-01T11:07:27;12.90;1.00
3208;DHT22;1616;52.394;9.756;2023-04-01T11:13:08;13.10;1.00
3208;DHT22;1616;52.394;9.756;2023-04-01T11:22:08;13.40;1.00
3208;DHT22;1616;52.394;9.756;2023-04-01T11:41:52;13.50;1.00
3208;DHT22;1616;52.394;9.756;2023-04-01T11:44:28;13.60;1.00
3208;DHT22;1616;52.394;9.756;2023-04-01T11:52:25;14.10;1.00
3208;DHT22;1616;52.394;9.756;2023-04-01T12:00:43;14.60;1.00
3208;DHT22;1616;52.394;9.756;2023-04-01T12:06:05;14.70;1.00
3208;DHT22;1616;52.394;9.756;2023-04-01T12:11:34;14.80;1.00
3208;DHT22;1616;52.394;9.756;2023-04-01T12:23:09;14.60;1.00
3208;DHT22;1616;52.394;9.756;2023-04-01T12:45:35;17.40;1.00
3208;DHT22;1616;52.394;9.756;2023-04-01T12:48:19;17.50;1.00
3208;DHT22;1616;52.394;9.756;2023-04-01T12:50:58;17.50;1.00
3208;DHT22;1616;52.394;9.756;2023-04-01T12:55:54;17.50;1.00
3208;DHT22;1616;52.394;9.756;2023-04-01T13:09:15;16.60;1.00
3208;DHT22;1616;52.394;9.756;2023-04-01T13:14:50;16.30;1.00
3208;DHT22;1616;52.394;9.756;2023-04-01T13:17:34;16.30;1.00
3208;DHT22;1616;52.394;9.756;2023-04-01T13:20:16;16.20;1.00
3208;DHT22;1616;52.394;9.756;2023-04-01T13:25:36;16.00;1.00
3208;DHT22;1616;52.394;9.756;2023-04-01T13:30:59;15.90;1.00
3208;DHT22;1616;52.394;9.756;2023-04-01T13:39:14;15.50;1.00
3208;DHT22;1616;52.394;9.756;2023-04-01T13:41:53;15.40;1.00
3208;DHT22;1616;52.394;9.756;2023-04-01T13:49:45;14.90;1.00
3208;DHT22;1616;52.394;9.756;2023-04-01T14:09:03;13.00;1.00
3208;DHT22;1616;52.394;9.756;2023-04-01T14:25:29;11.80;1.00
3208;DHT22;1616;52.394;9.756;2023-04-01T14:28:08;11.70;1.00
3208;DHT22;1616;52.394;9.756;2023-04-01T14:30:39;11.60;1.00
3208;DHT22;1616;52.394;9.756;2023-04-01T14:33:16;11.60;1.00
3208;DHT22;1616;52.394;9.756;2023-04-01T14:36:25;11.50;1.00
3208;DHT22;1616;52.394;9.756;2023-04-01T14:39:15;11.40;1.00
3208;DHT22;1616;52.394;9.756;2023-04-01T14:50:24;11.00;1.00
3208;DHT22;1616;52.394;9.756;2023-04-01T14:53:44;10.90;1.00
3208;DHT22;1616;52.394;9.756;2023-04-01T14:55:50;10.90;1.00
3208;DHT22;1616;52.394;9.756;2023-04-01T14:58:19;10.90;1.00
3208;DHT22;1616;52.394;9.756;2023-04-01T15:03:38;10.80;1.00
3208;DHT22;1616;52.394;9.756;2023-04-01T15:06:45;10.80;1.00
3208;DHT22;1616;52.394;9.756;2023-04-01T15:09:39;10.80;1.00
3208;DHT22;1616;52.394;9.756;2023-04-01T15:12:14;10.70;1.00
3208;DHT22;1616;52.394;9.756;2023-04-01T15:18:09;10.60;1.00
3208;DHT22;1616;52.394;9.756;2023-04-01T15:23:35;10.40;1.00
3208;DHT22;1616;52.394;9.756;2023-04-01T15:28:39;10.30;1.00
3208;DHT22;1616;52.394;9.756;2023-04-01T15:37:05;10.10;1.00
3208;DHT22;1616;52.394;9.756;2023-04-01T15:39:48;10.10;1.00
3208;DHT22;1616;52.394;9.756;2023-04-01T15:42:22;10.00;1.00
3208;DHT22;1616;52.394;9.756;2023-04-01T15:45:12;9.90;1.00
3208;DHT22;1616;52.394;9.756;2023-04-01T15:47:58;9.80;1.00
3208;DHT22;1616;52.394;9.756;2023-04-01T15:50:52;9.70;1.00
3208;DHT22;1616;52.394;9.756;2023-04-01T15:53:44;9.60;1.00
3208;DHT22;1616;52.394;9.756;2023-04-01T15:56:18;9.50;1.00
3208;DHT22;1616;52.394;9.756;2023-04-01T16:01:45;9.40;1.00
3208;DHT22;1616;52.394;9.756;2023-04-01T16:07:17;9.30;1.00
3208;DHT22;1616;52.394;9.756;2023-04-01T16:09:53;9.20;1.00
3208;DHT22;1616;52.394;9.756;2023-04-01T16:15:25;9.10;1.00
3208;DHT22;1616;52.394;9.756;2023-04-01T16:20:46;9.10;1.00
3208;DHT22;1616;52.394;9.756;2023-04-01T16:26:07;9.10;1.00
3208;DHT22;1616;52.394;9.756;2023-04-01T16:28:44;9.00;1.00
3208;DHT22;1616;52.394;9.756;2023-04-01T16:31:15;9.00;1.00
3208;DHT22;1616;52.394;9.756;2023-04-01T16:33:56;8.80;1.00
3208;DHT22;1616;52.394;9.756;2023-04-01T16:36:49;8.90;1.00
3208;DHT22;1616;52.394;9.756;2023-04-01T16:39:41;8.80;1.00
3208;DHT22;1616;52.394;9.756;2023-04-01T16:42:31;8.70;1.00
3208;DHT22;1616;52.394;9.756;2023-04-01T16:45:21;8.70;1.00
3208;DHT22;1616;52.394;9.756;2023-04-01T16:47:54;8.70;1.00
3208;DHT22;1616;52.394;9.756;2023-04-01T16:50:24;8.60;1.00
3208;DHT22;1616;52.394;9.756;2023-04-01T16:53:10;8.60;1.00
3208;DHT22;1616;52.394;9.756;2023-04-01T16:58:07;8.50;1.00
3208;DHT22;1616;52.394;9.756;2023-04-01T17:00:48;8.40;1.00
3208;DHT22;1616;52.394;9.756;2023-04-01T17:03:30;8.40;1.00
3208;DHT22;1616;52.394;9.756;2023-04-01T17:09:50;8.30;1.00
3208;DHT22;1616;52.394;9.756;2023-04-01T17:17:28;8.10;1.00
3208;DHT22;1616;52.394;9.756;2023-04-01T17:20:25;9.40;1.00
3208;DHT22;1616;52.394;9.756;2023-04-01T17:23:05;8.10;1.00
3208;DHT22;1616;52.394;9.756;2023-04-01T17:25:52;8.00;1.00
3208;DHT22;1616;52.394;9.756;2023-04-01T17:34:06;7.90;1.00
3208;DHT22;1616;52.394;9.756;2023-04-01T17:36:58;7.80;1.00
3208;DHT22;1616;52.394;9.756;2023-04-01T17:39:46;7.80;1.00
3208;DHT22;1616;52.394;9.756;2023-04-01T17:47:40;7.70;1.00
3208;DHT22;1616;52.394;9.756;2023-04-01T17:50:44;7.60;1.00
3208;DHT22;1616;52.394;9.756;2023-04-01T17:56:04;7.50;1.00
3208;DHT22;1616;52.394;9.756;2023-04-01T18:01:15;7.50;1.00
3208;DHT22;1616;52.394;9.756;2023-04-01T18:06:59;7.40;1.00
3208;DHT22;1616;52.394;9.756;2023-04-01T18:15:01;7.30;1.00
3208;DHT22;1616;52.394;9.756;2023-04-01T18:23:26;7.20;1.00
3208;DHT22;1616;52.394;9.756;2023-04-01T18:26:02;7.20;1.00
3208;DHT22;1616;52.394;9.756;2023-04-01T18:29:13;7.20;1.00
3208;DHT22;1616;52.394;9.756;2023-04-01T18:31:54;7.10;1.00
3208;DHT22;1616;52.394;9.756;2023-04-01T18:34:43;7.10;1.00
3208;DHT22;1616;52.394;9.756;2023-04-01T18:37:25;7.10;1.00
3208;DHT22;1616;52.394;9.756;2023-04-01T18:40:00;7.10;1.00
3208;DHT22;1616;52.394;9.756;2023-04-01T18:42:50;7.00;1.00
3208;DHT22;1616;52.394;9.756;2023-04-01T18:45:40;7.00;1.00
3208;DHT22;1616;52.394;9.756;2023-04-01T18:48:57;7.00;1.00
3208;DHT22;1616;52.394;9.756;2023-04-01T18:51:17;7.00;1.00
3208;DHT22;1616;52.394;9.756;2023-04-01T18:54:02;7.00;1.00
3208;DHT22;1616;52.394;9.756;2023-04-01T18:56:37;7.00;1.00
3208;DHT22;1616;52.394;9.756;2023-04-01T18:59:17;6.90;1.00
3208;DHT22;1616;52.394;9.756;2023-04-01T19:01:52;6.90;1.00
3208;DHT22;1616;52.394;9.756;2023-04-01T19:07:41;6.80;1.00
3208;DHT22;1616;52.394;9.756;2023-04-01T19:10:14;6.70;1.00
3208;DHT22;1616;52.394;9.756;2023-04-01T19:12:47;6.60;1.00
3208;DHT22;1616;52.394;9.756;2023-04-01T19:18:06;6.70;1.00
3208;DHT22;1616;52.394;9.756;2023-04-01T19:20:40;6.60;1.00
3208;DHT22;1616;52.394;9.756;2023-04-01T19:23:27;6.70;1.00
3208;DHT22;1616;52.394;9.756;2023-04-01T19:25:59;6.70;1.00
3208;DHT22;1616;52.394;9.756;2023-04-01T19:28:50;6.60;1.00
3208;DHT22;1616;52.394;9.756;2023-04-01T19:34:14;6.60;1.00
3208;DHT22;1616;52.394;9.756;2023-04-01T19:36:53;6.60;1.00
3208;DHT22;1616;52.394;9.756;2023-04-01T19:39:42;6.50;1.00
3208;DHT22;1616;52.394;9.756;2023-04-01T19:42:22;6.50;1.00
3208;DHT22;1616;52.394;9.756;2023-04-01T19:45:00;6.40;1.00
3208;DHT22;1616;52.394;9.756;2023-04-01T19:50:40;6.40;1.00
3208;DHT22;1616;52.394;9.756;2023-04-01T19:53:19;6.30;1.00
3208;DHT22;1616;52.394;9.756;2023-04-01T19:56:15;6.20;1.00
3208;DHT22;1616;52.394;9.756;2023-04-01T19:58:53;6.20;1.00
3208;DHT22;1616;52.394;9.756;2023-04-01T20:01:27;6.10;1.00
3208;DHT22;1616;52.394;9.756;2023-04-01T20:04:08;6.10;1.00
3208;DHT22;1616;52.394;9.756;2023-04-01T20:07:00;6.00;1.00
3208;DHT22;1616;52.394;9.756;2023-04-01T20:14:58;5.90;1.00
3208;DHT22;1616;52.394;9.756;2023-04-01T20:17:38;6.00;1.00
3208;DHT22;1616;52.394;9.756;2023-04-01T20:28:21;5.80;1.00
3208;DHT22;1616;52.394;9.756;2023-04-01T20:48:47;5.70;1.00
3208;DHT22;1616;52.394;9.756;2023-04-01T20:50:55;5.70;1.00
3208;DHT22;1616;52.394;9.756;2023-04-01T20:53:29;5.60;1.00
3208;DHT22;1616;52.394;9.756;2023-04-01T20:56:16;5.60;1.00
3208;DHT22;1616;52.394;9.756;2023-04-01T21:14:50;5.40;1.00
3208;DHT22;1616;52.394;9.756;2023-04-01T21:17:32;5.40;1.00
3208;DHT22;1616;52.394;9.756;2023-04-01T21:20:13;5.40;1.00
3208;DHT22;1616;52.394;9.756;2023-04-01T21:23:03;5.40;1.00
3208;DHT22;1616;52.394;9.756;2023-04-01T21:25:43;5.40;1.00
3208;DHT22;1616;52.394;9.756;2023-04-01T21:31:27;5.40;1.00
3208;DHT22;1616;52.394;9.756;2023-04-01T21:40:32;5.40;1.00
3208;DHT22;1616;52.394;9.756;2023-04-01T21:48:46;5.30;1.00
3208;DHT22;1616;52.394;9.756;2023-04-01T21:54:05;5.30;1.00
3208;DHT22;1616;52.394;9.756;2023-04-01T21:56:49;5.30;1.00
3208;DHT22;1616;52.394;9.756;2023-04-01T22:04:51;5.20;1.00
3208;DHT22;1616;52.394;9.756;2023-04-01T22:07:30;5.20;1.00
3208;DHT22;1616;52.394;9.756;2023-04-01T22:10:27;5.10;1.00
3208;DHT22;1616;52.394;9.756;2023-04-01T22:13:20;5.10;1.00
3208;DHT22;1616;52.394;9.756;2023-04-01T22:16:08;5.10;1.00
3208;DHT22;1616;52.394;9.756;2023-04-01T22:24:43;4.90;1.00
3208;DHT22;1616;52.394;9.756;2023-04-01T22:27:19;4.90;1.00
3208;DHT22;1616;52.394;9.756;2023-04-01T22:32:52;4.80;1.00
3208;DHT22;1616;52.394;9.756;2023-04-01T22:38:07;4.70;1.00
3208;DHT22;1616;52.394;9.756;2023-04-01T22:40:38;4.70;1.00
3208;DHT22;1616;52.394;9.756;2023-04-01T22:43:15;4.70;1.00
3208;DHT22;1616;52.394;9.756;2023-04-01T22:45:54;4.70;1.00
3208;DHT22;1616;52.394;9.756;2023-04-01T22:50:57;4.60;1.00
3208;DHT22;1616;52.394;9.756;2023-04-01T22:53:52;4.60;1.00
3208;DHT22;1616;52.394;9.756;2023-04-01T22:56:37;4.60;1.00
3208;DHT22;1616;52.394;9.756;2023-04-01T22:59:37;4.60;1.00
3208;DHT22;1616;52.394;9.756;2023-04-01T23:02:19;4.60;1.00
3208;DHT22;1616;52.394;9.756;2023-04-01T23:04:52;4.60;1.00
3208;DHT22;1616;52.394;9.756;2023-04-01T23:10:42;4.70;1.00
3208;DHT22;1616;52.394;9.756;2023-04-01T23:13:15;4.70;1.00
3208;DHT22;1616;52.394;9.756;2023-04-01T23:15:42;4.70;1.00
3208;DHT22;1616;52.394;9.756;2023-04-01T23:23:30;4.60;1.00
3208;DHT22;1616;52.394;9.756;2023-04-01T23:28:54;4.50;1.00
3208;DHT22;1616;52.394;9.756;2023-04-01T23:36:46;4.40;1.00
3208;DHT22;1616;52.394;9.756;2023-04-01T23:39:35;4.40;1.00
3208;DHT22;1616;52.394;9.756;2023-04-01T23:44:50;4.40;1.00
3208;DHT22;1616;52.394;9.756;2023-04-01T23:47:20;4.40;1.00
3208;DHT22;1616;52.394;9.756;2023-04-01T23:49:49;4.40;1.00
3208;DHT22;1616;52.394;9.756;2023-04-01T23:52:24;4.40;1.00
3208;DHT22;1616;52.394;9.756;2023-04-01T23:55:13;4.40;1.00
3208;DHT22;1616;52.394;9.756;2023-04-01T23:57:39;4.40;1.00
